Terminal Aerodrome Forecast
Issued by NWS

Home | Current Version | Previous Version | Text Only | Print | Product List | Glossary On
Versions: 1 2 3 4 5 6 7 8 9 10 11 12 13 14 15 16 17 18 19 20 21 22 23 24 25
890
FTUS43 KILX 220959 AAC
TAFBMI
TAF AMD
KBMI 220959Z 2210/2306 24006KT P6SM -RA OVC050
      TEMPO 2210/2212 4SM BR BKN004
     FM221200 22006KT 2SM BR OVC012
     FM221500 29009KT P6SM BKN030
     FM221600 32010KT P6SM SCT050
     FM230100 34006KT P6SM FEW250=

USA.gov is the U.S. government's official web portal to all federal, state and local government web resources and services.